sensor_id;sensor_type;location;lat;lon;timestamp;P1;durP1;ratioP1;P2;durP2;ratioP2
27794;SDS011;15176;50.844;4.412;2022-11-23T00:01:17;10.43;;;1.98;;
27794;SDS011;15176;50.844;4.412;2022-11-23T00:03:43;10.75;;;2.38;;
27794;SDS011;15176;50.844;4.412;2022-11-23T00:06:10;14.32;;;2.55;;
27794;SDS011;15176;50.844;4.412;2022-11-23T00:08:36;11.73;;;2.20;;
27794;SDS011;15176;50.844;4.412;2022-11-23T00:11:01;9.57;;;1.92;;
27794;SDS011;15176;50.844;4.412;2022-11-23T00:13:27;8.75;;;2.22;;
27794;SDS011;15176;50.844;4.412;2022-11-23T00:15:53;14.35;;;2.20;;
27794;SDS011;15176;50.844;4.412;2022-11-23T00:18:19;14.43;;;2.05;;
27794;SDS011;15176;50.844;4.412;2022-11-23T00:20:45;10.25;;;1.90;;
27794;SDS011;15176;50.844;4.412;2022-11-23T00:23:12;12.32;;;2.00;;
27794;SDS011;15176;50.844;4.412;2022-11-23T00:25:38;15.00;;;1.92;;
27794;SDS011;15176;50.844;4.412;2022-11-23T00:28:03;11.05;;;1.92;;
27794;SDS011;15176;50.844;4.412;2022-11-23T00:30:29;16.00;;;1.95;;
27794;SDS011;15176;50.844;4.412;2022-11-23T00:32:55;17.42;;;1.90;;
27794;SDS011;15176;50.844;4.412;2022-11-23T00:35:21;10.50;;;1.60;;
27794;SDS011;15176;50.844;4.412;2022-11-23T00:37:48;13.15;;;1.67;;
27794;SDS011;15176;50.844;4.412;2022-11-23T00:40:15;14.20;;;1.90;;
27794;SDS011;15176;50.844;4.412;2022-11-23T00:42:40;10.77;;;1.88;;
27794;SDS011;15176;50.844;4.412;2022-11-23T00:45:06;13.18;;;2.00;;
27794;SDS011;15176;50.844;4.412;2022-11-23T00:47:32;15.43;;;2.13;;
27794;SDS011;15176;50.844;4.412;2022-11-23T00:49:58;15.88;;;2.38;;
27794;SDS011;15176;50.844;4.412;2022-11-23T00:52:23;11.25;;;1.60;;
27794;SDS011;15176;50.844;4.412;2022-11-23T00:54:49;12.18;;;2.42;;
27794;SDS011;15176;50.844;4.412;2022-11-23T00:57:15;11.18;;;1.65;;
27794;SDS011;15176;50.844;4.412;2022-11-23T00:59:40;11.15;;;1.70;;
27794;SDS011;15176;50.844;4.412;2022-11-23T01:02:06;11.70;;;1.77;;
27794;SDS011;15176;50.844;4.412;2022-11-23T01:04:32;10.10;;;2.25;;
27794;SDS011;15176;50.844;4.412;2022-11-23T01:06:58;13.27;;;2.40;;
27794;SDS011;15176;50.844;4.412;2022-11-23T01:09:24;18.40;;;2.40;;
27794;SDS011;15176;50.844;4.412;2022-11-23T01:11:53;13.02;;;2.13;;
27794;SDS011;15176;50.844;4.412;2022-11-23T01:14:19;9.80;;;1.92;;
27794;SDS011;15176;50.844;4.412;2022-11-23T01:16:46;12.32;;;1.90;;
27794;SDS011;15176;50.844;4.412;2022-11-23T01:19:13;8.75;;;1.80;;
27794;SDS011;15176;50.844;4.412;2022-11-23T01:21:41;14.18;;;2.30;;
27794;SDS011;15176;50.844;4.412;2022-11-23T01:24:08;14.73;;;2.17;;
27794;SDS011;15176;50.844;4.412;2022-11-23T01:26:36;13.27;;;2.00;;
27794;SDS011;15176;50.844;4.412;2022-11-23T01:29:02;12.40;;;2.50;;
27794;SDS011;15176;50.844;4.412;2022-11-23T01:31:28;12.70;;;2.10;;
27794;SDS011;15176;50.844;4.412;2022-11-23T01:33:54;16.65;;;2.58;;
27794;SDS011;15176;50.844;4.412;2022-11-23T01:36:23;14.30;;;2.15;;
27794;SDS011;15176;50.844;4.412;2022-11-23T01:38:50;13.60;;;2.35;;
27794;SDS011;15176;50.844;4.412;2022-11-23T01:41:18;9.80;;;1.98;;
27794;SDS011;15176;50.844;4.412;2022-11-23T01:43:45;11.98;;;2.35;;
27794;SDS011;15176;50.844;4.412;2022-11-23T01:46:11;10.60;;;1.90;;
27794;SDS011;15176;50.844;4.412;2022-11-23T01:51:14;11.02;;;2.00;;
27794;SDS011;15176;50.844;4.412;2022-11-23T01:53:42;10.45;;;2.20;;
27794;SDS011;15176;50.844;4.412;2022-11-23T01:56:13;11.35;;;2.42;;
27794;SDS011;15176;50.844;4.412;2022-11-23T01:58:43;10.82;;;2.55;;
27794;SDS011;15176;50.844;4.412;2022-11-23T02:01:13;8.98;;;2.35;;
27794;SDS011;15176;50.844;4.412;2022-11-23T02:03:39;12.88;;;2.80;;
27794;SDS011;15176;50.844;4.412;2022-11-23T02:06:12;11.63;;;2.80;;
27794;SDS011;15176;50.844;4.412;2022-11-23T02:08:40;15.25;;;2.33;;
27794;SDS011;15176;50.844;4.412;2022-11-23T02:11:06;16.33;;;2.30;;
27794;SDS011;15176;50.844;4.412;2022-11-23T02:13:33;14.80;;;3.05;;
27794;SDS011;15176;50.844;4.412;2022-11-23T02:16:00;15.15;;;2.67;;
27794;SDS011;15176;50.844;4.412;2022-11-23T02:18:27;12.68;;;2.30;;
27794;SDS011;15176;50.844;4.412;2022-11-23T02:20:59;16.13;;;2.95;;
27794;SDS011;15176;50.844;4.412;2022-11-23T02:26:15;21.58;;;2.40;;
27794;SDS011;15176;50.844;4.412;2022-11-23T02:28:46;12.23;;;2.55;;
27794;SDS011;15176;50.844;4.412;2022-11-23T02:31:29;12.55;;;2.60;;
27794;SDS011;15176;50.844;4.412;2022-11-23T02:33:56;16.58;;;2.97;;
27794;SDS011;15176;50.844;4.412;2022-11-23T02:39:04;14.73;;;2.92;;
27794;SDS011;15176;50.844;4.412;2022-11-23T02:41:40;13.13;;;2.90;;
27794;SDS011;15176;50.844;4.412;2022-11-23T02:44:19;13.02;;;2.50;;
27794;SDS011;15176;50.844;4.412;2022-11-23T02:47:06;13.27;;;2.13;;
27794;SDS011;15176;50.844;4.412;2022-11-23T02:49:33;16.73;;;3.05;;
27794;SDS011;15176;50.844;4.412;2022-11-23T02:51:59;16.73;;;2.60;;
27794;SDS011;15176;50.844;4.412;2022-11-23T02:54:26;14.50;;;2.90;;
27794;SDS011;15176;50.844;4.412;2022-11-23T02:56:51;11.88;;;2.20;;
27794;SDS011;15176;50.844;4.412;2022-11-23T02:59:17;20.35;;;2.95;;
27794;SDS011;15176;50.844;4.412;2022-11-23T03:01:43;12.95;;;2.33;;
27794;SDS011;15176;50.844;4.412;2022-11-23T03:04:09;16.52;;;2.65;;
27794;SDS011;15176;50.844;4.412;2022-11-23T03:06:35;17.00;;;2.55;;
27794;SDS011;15176;50.844;4.412;2022-11-23T03:09:01;15.57;;;2.42;;
27794;SDS011;15176;50.844;4.412;2022-11-23T03:11:27;15.82;;;2.30;;
27794;SDS011;15176;50.844;4.412;2022-11-23T03:13:53;16.50;;;2.45;;
27794;SDS011;15176;50.844;4.412;2022-11-23T03:16:19;16.30;;;2.75;;
27794;SDS011;15176;50.844;4.412;2022-11-23T03:18:45;12.45;;;2.33;;
27794;SDS011;15176;50.844;4.412;2022-11-23T03:21:11;14.10;;;2.30;;
27794;SDS011;15176;50.844;4.412;2022-11-23T03:23:36;13.65;;;2.53;;
27794;SDS011;15176;50.844;4.412;2022-11-23T03:26:02;13.65;;;2.05;;
27794;SDS011;15176;50.844;4.412;2022-11-23T03:28:28;8.38;;;1.98;;
27794;SDS011;15176;50.844;4.412;2022-11-23T03:30:54;13.93;;;2.10;;
27794;SDS011;15176;50.844;4.412;2022-11-23T03:33:20;14.57;;;1.80;;
27794;SDS011;15176;50.844;4.412;2022-11-23T03:35:46;15.73;;;2.63;;
27794;SDS011;15176;50.844;4.412;2022-11-23T03:38:11;18.40;;;2.70;;
27794;SDS011;15176;50.844;4.412;2022-11-23T03:40:37;14.63;;;2.25;;
27794;SDS011;15176;50.844;4.412;2022-11-23T03:43:04;8.98;;;1.80;;
27794;SDS011;15176;50.844;4.412;2022-11-23T03:45:30;20.08;;;3.25;;
27794;SDS011;15176;50.844;4.412;2022-11-23T03:47:56;12.88;;;2.15;;
27794;SDS011;15176;50.844;4.412;2022-11-23T03:50:21;12.75;;;2.53;;
27794;SDS011;15176;50.844;4.412;2022-11-23T03:52:49;10.10;;;1.85;;
27794;SDS011;15176;50.844;4.412;2022-11-23T03:55:15;15.38;;;2.40;;
27794;SDS011;15176;50.844;4.412;2022-11-23T03:57:41;12.93;;;2.30;;
27794;SDS011;15176;50.844;4.412;2022-11-23T04:00:09;17.00;;;2.90;;
27794;SDS011;15176;50.844;4.412;2022-11-23T04:02:35;10.88;;;1.92;;
27794;SDS011;15176;50.844;4.412;2022-11-23T04:05:01;11.27;;;2.22;;
27794;SDS011;15176;50.844;4.412;2022-11-23T04:07:27;16.13;;;2.35;;
27794;SDS011;15176;50.844;4.412;2022-11-23T04:09:53;11.93;;;2.40;;
27794;SDS011;15176;50.844;4.412;2022-11-23T04:12:18;11.80;;;2.30;;
27794;SDS011;15176;50.844;4.412;2022-11-23T04:14:44;16.42;;;2.40;;
27794;SDS011;15176;50.844;4.412;2022-11-23T04:17:10;13.63;;;2.72;;
27794;SDS011;15176;50.844;4.412;2022-11-23T04:19:35;12.60;;;2.20;;
27794;SDS011;15176;50.844;4.412;2022-11-23T04:22:01;10.18;;;2.08;;
27794;SDS011;15176;50.844;4.412;2022-11-23T04:24:27;13.95;;;2.53;;
27794;SDS011;15176;50.844;4.412;2022-11-23T04:26:52;17.90;;;2.38;;
27794;SDS011;15176;50.844;4.412;2022-11-23T04:29:18;16.25;;;2.65;;
27794;SDS011;15176;50.844;4.412;2022-11-23T04:31:44;15.18;;;2.80;;
27794;SDS011;15176;50.844;4.412;2022-11-23T04:34:09;12.63;;;2.25;;
27794;SDS011;15176;50.844;4.412;2022-11-23T04:36:35;11.20;;;2.22;;
27794;SDS011;15176;50.844;4.412;2022-11-23T04:39:01;14.77;;;1.92;;
27794;SDS011;15176;50.844;4.412;2022-11-23T04:41:28;12.30;;;2.28;;
27794;SDS011;15176;50.844;4.412;2022-11-23T04:43:54;11.60;;;2.47;;
27794;SDS011;15176;50.844;4.412;2022-11-23T04:46:20;12.68;;;2.40;;
27794;SDS011;15176;50.844;4.412;2022-11-23T04:48:46;10.10;;;2.28;;
27794;SDS011;15176;50.844;4.412;2022-11-23T04:51:12;10.52;;;1.50;;
27794;SDS011;15176;50.844;4.412;2022-11-23T04:53:38;10.85;;;1.95;;
27794;SDS011;15176;50.844;4.412;2022-11-23T04:56:04;14.93;;;2.30;;
27794;SDS011;15176;50.844;4.412;2022-11-23T04:58:30;11.90;;;2.20;;
27794;SDS011;15176;50.844;4.412;2022-11-23T05:00:56;12.57;;;2.10;;
27794;SDS011;15176;50.844;4.412;2022-11-23T05:03:23;14.48;;;2.40;;
27794;SDS011;15176;50.844;4.412;2022-11-23T05:05:49;8.85;;;1.73;;
27794;SDS011;15176;50.844;4.412;2022-11-23T05:08:15;15.00;;;2.42;;
27794;SDS011;15176;50.844;4.412;2022-11-23T05:10:41;15.43;;;2.40;;
27794;SDS011;15176;50.844;4.412;2022-11-23T05:13:07;16.50;;;2.53;;
27794;SDS011;15176;50.844;4.412;2022-11-23T05:15:33;18.80;;;2.45;;
27794;SDS011;15176;50.844;4.412;2022-11-23T05:18:02;11.02;;;1.92;;
27794;SDS011;15176;50.844;4.412;2022-11-23T05:20:30;17.13;;;2.20;;
27794;SDS011;15176;50.844;4.412;2022-11-23T05:22:56;20.55;;;2.80;;
27794;SDS011;15176;50.844;4.412;2022-11-23T05:25:23;13.10;;;1.73;;
27794;SDS011;15176;50.844;4.412;2022-11-23T05:27:49;14.73;;;2.65;;
27794;SDS011;15176;50.844;4.412;2022-11-23T05:30:15;17.38;;;2.10;;
27794;SDS011;15176;50.844;4.412;2022-11-23T05:32:41;14.15;;;2.30;;
27794;SDS011;15176;50.844;4.412;2022-11-23T05:35:07;10.18;;;2.10;;
27794;SDS011;15176;50.844;4.412;2022-11-23T05:37:33;15.02;;;2.22;;
27794;SDS011;15176;50.844;4.412;2022-11-23T05:39:59;14.10;;;2.28;;
27794;SDS011;15176;50.844;4.412;2022-11-23T05:42:25;16.80;;;2.60;;
27794;SDS011;15176;50.844;4.412;2022-11-23T05:44:51;11.70;;;1.65;;
27794;SDS011;15176;50.844;4.412;2022-11-23T05:47:17;11.45;;;2.05;;
27794;SDS011;15176;50.844;4.412;2022-11-23T05:49:43;12.15;;;1.92;;
27794;SDS011;15176;50.844;4.412;2022-11-23T05:52:09;12.25;;;2.40;;
27794;SDS011;15176;50.844;4.412;2022-11-23T05:54:34;13.73;;;2.10;;
27794;SDS011;15176;50.844;4.412;2022-11-23T05:57:00;17.55;;;3.25;;
27794;SDS011;15176;50.844;4.412;2022-11-23T05:59:26;9.27;;;2.17;;
27794;SDS011;15176;50.844;4.412;2022-11-23T06:01:52;13.90;;;2.38;;
27794;SDS011;15176;50.844;4.412;2022-11-23T06:04:17;13.98;;;2.20;;
27794;SDS011;15176;50.844;4.412;2022-11-23T06:06:43;9.02;;;2.13;;
27794;SDS011;15176;50.844;4.412;2022-11-23T06:09:09;11.95;;;1.92;;
27794;SDS011;15176;50.844;4.412;2022-11-23T06:11:35;13.07;;;2.47;;
27794;SDS011;15176;50.844;4.412;2022-11-23T06:14:01;8.45;;;1.83;;
27794;SDS011;15176;50.844;4.412;2022-11-23T06:16:26;18.08;;;2.58;;
27794;SDS011;15176;50.844;4.412;2022-11-23T06:18:52;13.38;;;2.30;;
27794;SDS011;15176;50.844;4.412;2022-11-23T06:21:20;12.45;;;2.30;;
27794;SDS011;15176;50.844;4.412;2022-11-23T06:23:49;12.63;;;2.13;;
27794;SDS011;15176;50.844;4.412;2022-11-23T06:26:15;9.50;;;2.15;;
27794;SDS011;15176;50.844;4.412;2022-11-23T06:28:41;10.77;;;1.73;;
27794;SDS011;15176;50.844;4.412;2022-11-23T06:31:06;8.85;;;1.58;;
27794;SDS011;15176;50.844;4.412;2022-11-23T06:33:33;11.45;;;2.00;;
27794;SDS011;15176;50.844;4.412;2022-11-23T06:35:59;16.08;;;2.17;;
27794;SDS011;15176;50.844;4.412;2022-11-23T06:38:26;18.08;;;2.90;;
27794;SDS011;15176;50.844;4.412;2022-11-23T06:40:56;12.90;;;2.05;;
27794;SDS011;15176;50.844;4.412;2022-11-23T06:43:25;17.08;;;2.53;;
27794;SDS011;15176;50.844;4.412;2022-11-23T06:45:52;12.43;;;2.17;;
27794;SDS011;15176;50.844;4.412;2022-11-23T06:48:19;13.25;;;2.40;;
27794;SDS011;15176;50.844;4.412;2022-11-23T06:50:45;12.38;;;1.92;;
27794;SDS011;15176;50.844;4.412;2022-11-23T06:53:11;15.05;;;2.45;;
27794;SDS011;15176;50.844;4.412;2022-11-23T06:55:37;13.77;;;3.05;;
27794;SDS011;15176;50.844;4.412;2022-11-23T06:58:04;15.73;;;2.83;;
27794;SDS011;15176;50.844;4.412;2022-11-23T07:00:30;13.45;;;2.80;;
27794;SDS011;15176;50.844;4.412;2022-11-23T07:02:56;11.05;;;2.30;;
27794;SDS011;15176;50.844;4.412;2022-11-23T07:05:22;15.02;;;2.90;;
27794;SDS011;15176;50.844;4.412;2022-11-23T07:07:48;16.25;;;2.42;;
27794;SDS011;15176;50.844;4.412;2022-11-23T07:10:15;14.95;;;2.30;;
27794;SDS011;15176;50.844;4.412;2022-11-23T07:12:41;23.30;;;3.30;;
27794;SDS011;15176;50.844;4.412;2022-11-23T07:15:08;11.88;;;2.10;;
27794;SDS011;15176;50.844;4.412;2022-11-23T07:17:38;10.50;;;1.95;;
27794;SDS011;15176;50.844;4.412;2022-11-23T07:20:10;15.07;;;2.55;;
27794;SDS011;15176;50.844;4.412;2022-11-23T07:22:36;16.52;;;2.47;;
27794;SDS011;15176;50.844;4.412;2022-11-23T07:25:03;16.08;;;2.42;;
27794;SDS011;15176;50.844;4.412;2022-11-23T07:27:29;14.82;;;2.90;;
27794;SDS011;15176;50.844;4.412;2022-11-23T07:29:58;17.30;;;2.88;;
27794;SDS011;15176;50.844;4.412;2022-11-23T07:32:24;13.38;;;2.70;;
27794;SDS011;15176;50.844;4.412;2022-11-23T07:34:53;12.93;;;3.40;;
27794;SDS011;15176;50.844;4.412;2022-11-23T07:37:19;17.77;;;2.85;;
27794;SDS011;15176;50.844;4.412;2022-11-23T07:39:46;9.75;;;2.15;;
27794;SDS011;15176;50.844;4.412;2022-11-23T07:42:12;21.63;;;2.63;;
27794;SDS011;15176;50.844;4.412;2022-11-23T07:44:38;11.05;;;2.50;;
27794;SDS011;15176;50.844;4.412;2022-11-23T07:47:15;16.60;;;2.67;;
27794;SDS011;15176;50.844;4.412;2022-11-23T07:49:48;13.30;;;2.83;;
27794;SDS011;15176;50.844;4.412;2022-11-23T07:52:14;16.13;;;3.03;;
27794;SDS011;15176;50.844;4.412;2022-11-23T07:54:42;14.20;;;2.65;;
27794;SDS011;15176;50.844;4.412;2022-11-23T07:57:09;14.05;;;2.88;;
27794;SDS011;15176;50.844;4.412;2022-11-23T07:59:34;9.63;;;2.30;;
27794;SDS011;15176;50.844;4.412;2022-11-23T08:02:03;15.48;;;2.80;;
27794;SDS011;15176;50.844;4.412;2022-11-23T08:04:29;15.63;;;2.85;;
27794;SDS011;15176;50.844;4.412;2022-11-23T08:06:55;11.82;;;2.72;;
27794;SDS011;15176;50.844;4.412;2022-11-23T08:09:24;13.00;;;2.45;;
27794;SDS011;15176;50.844;4.412;2022-11-23T08:11:56;12.25;;;2.50;;
27794;SDS011;15176;50.844;4.412;2022-11-23T08:14:22;16.85;;;2.70;;
27794;SDS011;15176;50.844;4.412;2022-11-23T08:16:49;15.13;;;2.28;;
27794;SDS011;15176;50.844;4.412;2022-11-23T08:19:16;11.00;;;2.85;;
27794;SDS011;15176;50.844;4.412;2022-11-23T08:21:43;11.95;;;2.33;;
27794;SDS011;15176;50.844;4.412;2022-11-23T08:24:10;12.95;;;2.42;;
27794;SDS011;15176;50.844;4.412;2022-11-23T08:26:39;9.82;;;1.90;;
27794;SDS011;15176;50.844;4.412;2022-11-23T08:29:10;13.18;;;2.10;;
27794;SDS011;15176;50.844;4.412;2022-11-23T08:31:36;10.52;;;2.60;;
27794;SDS011;15176;50.844;4.412;2022-11-23T08:34:02;7.78;;;1.98;;
27794;SDS011;15176;50.844;4.412;2022-11-23T08:36:31;11.18;;;2.30;;
27794;SDS011;15176;50.844;4.412;2022-11-23T08:39:03;10.27;;;2.00;;
27794;SDS011;15176;50.844;4.412;2022-11-23T08:41:35;7.90;;;2.53;;
27794;SDS011;15176;50.844;4.412;2022-11-23T08:44:02;10.38;;;2.20;;
27794;SDS011;15176;50.844;4.412;2022-11-23T08:46:28;11.57;;;2.20;;
27794;SDS011;15176;50.844;4.412;2022-11-23T08:48:54;10.80;;;2.28;;
27794;SDS011;15176;50.844;4.412;2022-11-23T08:51:20;7.80;;;2.05;;
27794;SDS011;15176;50.844;4.412;2022-11-23T08:53:47;14.30;;;2.72;;
27794;SDS011;15176;50.844;4.412;2022-11-23T08:56:14;9.80;;;2.28;;
27794;SDS011;15176;50.844;4.412;2022-11-23T08:58:41;13.95;;;2.30;;
27794;SDS011;15176;50.844;4.412;2022-11-23T09:01:11;14.57;;;2.72;;
27794;SDS011;15176;50.844;4.412;2022-11-23T09:03:38;6.38;;;2.08;;
27794;SDS011;15176;50.844;4.412;2022-11-23T09:06:06;10.38;;;2.35;;
27794;SDS011;15176;50.844;4.412;2022-11-23T09:08:42;5.45;;;1.88;;
27794;SDS011;15176;50.844;4.412;2022-11-23T09:11:09;6.82;;;2.08;;
27794;SDS011;15176;50.844;4.412;2022-11-23T09:13:37;9.95;;;2.47;;
27794;SDS011;15176;50.844;4.412;2022-11-23T09:16:03;10.88;;;2.67;;
27794;SDS011;15176;50.844;4.412;2022-11-23T09:18:30;9.10;;;2.20;;
27794;SDS011;15176;50.844;4.412;2022-11-23T09:21:00;10.68;;;2.35;;
27794;SDS011;15176;50.844;4.412;2022-11-23T09:23:29;12.10;;;2.30;;
27794;SDS011;15176;50.844;4.412;2022-11-23T09:25:57;11.75;;;2.90;;
27794;SDS011;15176;50.844;4.412;2022-11-23T09:28:24;8.52;;;2.30;;
27794;SDS011;15176;50.844;4.412;2022-11-23T09:30:52;9.68;;;2.08;;
27794;SDS011;15176;50.844;4.412;2022-11-23T09:33:22;11.65;;;2.40;;
27794;SDS011;15176;50.844;4.412;2022-11-23T09:36:03;7.28;;;2.03;;
27794;SDS011;15176;50.844;4.412;2022-11-23T09:38:29;8.00;;;2.08;;
27794;SDS011;15176;50.844;4.412;2022-11-23T09:43:48;11.77;;;2.47;;
27794;SDS011;15176;50.844;4.412;2022-11-23T09:49:32;8.02;;;2.10;;
27794;SDS011;15176;50.844;4.412;2022-11-23T09:52:09;9.35;;;2.25;;
27794;SDS011;15176;50.844;4.412;2022-11-23T09:54:40;8.48;;;1.98;;
27794;SDS011;15176;50.844;4.412;2022-11-23T09:57:10;6.10;;;2.00;;
27794;SDS011;15176;50.844;4.412;2022-11-23T09:59:41;9.32;;;2.03;;
27794;SDS011;15176;50.844;4.412;2022-11-23T10:02:21;8.30;;;2.10;;
27794;SDS011;15176;50.844;4.412;2022-11-23T10:04:57;9.63;;;1.92;;
27794;SDS011;15176;50.844;4.412;2022-11-23T10:13:42;9.32;;;1.70;;
27794;SDS011;15176;50.844;4.412;2022-11-23T10:24:42;5.30;;;1.15;;
27794;SDS011;15176;50.844;4.412;2022-11-23T10:27:19;12.50;;;3.80;;
27794;SDS011;15176;50.844;4.412;2022-11-23T10:29:52;8.20;;;1.80;;
27794;SDS011;15176;50.844;4.412;2022-11-23T10:32:30;9.43;;;1.40;;
27794;SDS011;15176;50.844;4.412;2022-11-23T10:35:20;9.73;;;1.60;;
27794;SDS011;15176;50.844;4.412;2022-11-23T10:37:55;6.45;;;1.42;;
27794;SDS011;15176;50.844;4.412;2022-11-23T10:40:33;7.60;;;1.50;;
27794;SDS011;15176;50.844;4.412;2022-11-23T10:43:05;5.47;;;1.60;;
27794;SDS011;15176;50.844;4.412;2022-11-23T10:45:41;6.03;;;1.55;;
27794;SDS011;15176;50.844;4.412;2022-11-23T10:48:09;6.75;;;1.63;;
27794;SDS011;15176;50.844;4.412;2022-11-23T10:50:36;7.03;;;1.45;;
27794;SDS011;15176;50.844;4.412;2022-11-23T10:55:47;10.75;;;1.90;;
27794;SDS011;15176;50.844;4.412;2022-11-23T10:58:31;6.50;;;1.65;;
27794;SDS011;15176;50.844;4.412;2022-11-23T11:01:02;11.32;;;1.90;;
27794;SDS011;15176;50.844;4.412;2022-11-23T11:03:32;6.82;;;1.90;;
27794;SDS011;15176;50.844;4.412;2022-11-23T11:06:00;10.73;;;1.98;;
27794;SDS011;15176;50.844;4.412;2022-11-23T11:08:29;6.68;;;1.60;;
27794;SDS011;15176;50.844;4.412;2022-11-23T11:13:50;9.13;;;2.10;;
27794;SDS011;15176;50.844;4.412;2022-11-23T11:16:37;7.45;;;1.80;;
27794;SDS011;15176;50.844;4.412;2022-11-23T11:19:29;10.70;;;1.90;;
27794;SDS011;15176;50.844;4.412;2022-11-23T11:21:58;7.32;;;1.70;;
27794;SDS011;15176;50.844;4.412;2022-11-23T11:24:36;8.50;;;1.85;;
27794;SDS011;15176;50.844;4.412;2022-11-23T11:27:05;9.73;;;1.95;;
27794;SDS011;15176;50.844;4.412;2022-11-23T11:35:23;9.68;;;1.65;;
27794;SDS011;15176;50.844;4.412;2022-11-23T11:37:59;5.90;;;1.35;;
27794;SDS011;15176;50.844;4.412;2022-11-23T11:40:35;11.57;;;1.70;;
27794;SDS011;15176;50.844;4.412;2022-11-23T11:45:46;6.78;;;1.67;;
27794;SDS011;15176;50.844;4.412;2022-11-23T11:48:18;6.30;;;1.58;;
27794;SDS011;15176;50.844;4.412;2022-11-23T11:50:54;5.65;;;1.20;;
27794;SDS011;15176;50.844;4.412;2022-11-23T11:53:27;6.07;;;1.20;;
27794;SDS011;15176;50.844;4.412;2022-11-23T11:56:56;4.78;;;1.25;;
27794;SDS011;15176;50.844;4.412;2022-11-23T12:07:23;7.07;;;1.33;;
27794;SDS011;15176;50.844;4.412;2022-11-23T12:09:56;7.25;;;1.40;;
27794;SDS011;15176;50.844;4.412;2022-11-23T12:12:27;4.85;;;1.60;;
27794;SDS011;15176;50.844;4.412;2022-11-23T12:14:56;5.47;;;1.20;;
27794;SDS011;15176;50.844;4.412;2022-11-23T12:17:32;3.83;;;1.13;;
27794;SDS011;15176;50.844;4.412;2022-11-23T12:25:37;4.05;;;1.23;;
27794;SDS011;15176;50.844;4.412;2022-11-23T12:37:03;3.97;;;1.05;;
27794;SDS011;15176;50.844;4.412;2022-11-23T12:44:58;4.07;;;0.98;;
27794;SDS011;15176;50.844;4.412;2022-11-23T12:50:44;4.28;;;1.10;;
27794;SDS011;15176;50.844;4.412;2022-11-23T12:58:53;5.75;;;1.45;;
27794;SDS011;15176;50.844;4.412;2022-11-23T13:01:24;5.80;;;1.88;;
27794;SDS011;15176;50.844;4.412;2022-11-23T13:15:35;4.65;;;1.50;;
27794;SDS011;15176;50.844;4.412;2022-11-23T13:21:32;5.78;;;1.40;;
27794;SDS011;15176;50.844;4.412;2022-11-23T13:24:00;4.00;;;1.17;;
27794;SDS011;15176;50.844;4.412;2022-11-23T13:26:28;5.72;;;1.33;;
27794;SDS011;15176;50.844;4.412;2022-11-23T13:28:56;7.10;;;1.20;;
27794;SDS011;15176;50.844;4.412;2022-11-23T13:31:24;3.80;;;1.10;;
27794;SDS011;15176;50.844;4.412;2022-11-23T13:37:15;6.85;;;1.50;;
27794;SDS011;15176;50.844;4.412;2022-11-23T13:42:25;5.03;;;1.35;;
27794;SDS011;15176;50.844;4.412;2022-11-23T13:48:02;3.78;;;1.08;;
27794;SDS011;15176;50.844;4.412;2022-11-23T13:50:28;5.63;;;1.10;;
27794;SDS011;15176;50.844;4.412;2022-11-23T13:52:54;4.90;;;1.20;;
27794;SDS011;15176;50.844;4.412;2022-11-23T13:55:21;3.40;;;1.27;;
27794;SDS011;15176;50.844;4.412;2022-11-23T14:08:44;4.32;;;1.20;;
27794;SDS011;15176;50.844;4.412;2022-11-23T14:11:18;6.10;;;1.30;;
27794;SDS011;15176;50.844;4.412;2022-11-23T14:13:53;5.15;;;1.20;;
27794;SDS011;15176;50.844;4.412;2022-11-23T14:16:37;3.83;;;1.20;;
27794;SDS011;15176;50.844;4.412;2022-11-23T14:19:56;5.63;;;1.45;;
27794;SDS011;15176;50.844;4.412;2022-11-23T14:25:48;5.85;;;1.60;;
27794;SDS011;15176;50.844;4.412;2022-11-23T14:33:39;4.72;;;1.70;;
27794;SDS011;15176;50.844;4.412;2022-11-23T14:41:58;4.70;;;1.52;;
27794;SDS011;15176;50.844;4.412;2022-11-23T14:44:26;4.30;;;1.55;;
27794;SDS011;15176;50.844;4.412;2022-11-23T14:47:07;3.13;;;1.40;;
27794;SDS011;15176;50.844;4.412;2022-11-23T14:49:34;4.07;;;1.30;;
27794;SDS011;15176;50.844;4.412;2022-11-23T14:52:02;5.50;;;1.20;;
27794;SDS011;15176;50.844;4.412;2022-11-23T14:54:29;2.70;;;0.98;;
27794;SDS011;15176;50.844;4.412;2022-11-23T14:56:56;3.25;;;1.20;;
27794;SDS011;15176;50.844;4.412;2022-11-23T14:59:36;4.78;;;1.60;;
27794;SDS011;15176;50.844;4.412;2022-11-23T15:02:16;6.70;;;1.65;;
27794;SDS011;15176;50.844;4.412;2022-11-23T15:04:57;4.03;;;1.55;;
27794;SDS011;15176;50.844;4.412;2022-11-23T15:07:52;3.40;;;1.38;;
27794;SDS011;15176;50.844;4.412;2022-11-23T15:10:39;4.72;;;1.88;;
27794;SDS011;15176;50.844;4.412;2022-11-23T15:13:25;6.35;;;1.65;;
27794;SDS011;15176;50.844;4.412;2022-11-23T15:15:53;6.43;;;1.75;;
27794;SDS011;15176;50.844;4.412;2022-11-23T15:18:33;4.10;;;1.30;;
27794;SDS011;15176;50.844;4.412;2022-11-23T15:23:37;5.00;;;1.60;;
27794;SDS011;15176;50.844;4.412;2022-11-23T15:26:16;4.05;;;1.55;;
27794;SDS011;15176;50.844;4.412;2022-11-23T15:28:44;5.10;;;1.50;;
27794;SDS011;15176;50.844;4.412;2022-11-23T15:31:31;4.68;;;1.33;;
27794;SDS011;15176;50.844;4.412;2022-11-23T15:34:00;5.45;;;1.60;;
27794;SDS011;15176;50.844;4.412;2022-11-23T15:36:29;4.03;;;1.60;;
27794;SDS011;15176;50.844;4.412;2022-11-23T15:38:57;4.22;;;1.60;;
27794;SDS011;15176;50.844;4.412;2022-11-23T15:41:25;5.68;;;1.58;;
27794;SDS011;15176;50.844;4.412;2022-11-23T15:43:57;6.63;;;1.73;;
27794;SDS011;15176;50.844;4.412;2022-11-23T15:46:28;8.05;;;1.75;;
27794;SDS011;15176;50.844;4.412;2022-11-23T15:49:03;6.38;;;1.58;;
27794;SDS011;15176;50.844;4.412;2022-11-23T15:51:31;4.70;;;1.52;;
27794;SDS011;15176;50.844;4.412;2022-11-23T15:54:02;4.55;;;1.80;;
27794;SDS011;15176;50.844;4.412;2022-11-23T15:58:54;6.03;;;1.73;;
27794;SDS011;15176;50.844;4.412;2022-11-23T16:01:20;5.43;;;1.83;;
27794;SDS011;15176;50.844;4.412;2022-11-23T16:06:35;7.30;;;2.28;;
27794;SDS011;15176;50.844;4.412;2022-11-23T16:11:59;6.82;;;2.15;;
27794;SDS011;15176;50.844;4.412;2022-11-23T16:14:30;6.50;;;2.03;;
27794;SDS011;15176;50.844;4.412;2022-11-23T16:17:21;7.07;;;2.55;;
27794;SDS011;15176;50.844;4.412;2022-11-23T16:19:51;7.47;;;1.95;;
27794;SDS011;15176;50.844;4.412;2022-11-23T16:22:31;8.45;;;2.50;;
27794;SDS011;15176;50.844;4.412;2022-11-23T16:25:06;5.70;;;2.40;;
27794;SDS011;15176;50.844;4.412;2022-11-23T16:30:24;7.75;;;2.42;;
27794;SDS011;15176;50.844;4.412;2022-11-23T16:32:52;7.63;;;2.75;;
27794;SDS011;15176;50.844;4.412;2022-11-23T16:35:18;6.28;;;2.40;;
27794;SDS011;15176;50.844;4.412;2022-11-23T16:37:46;7.88;;;2.70;;
27794;SDS011;15176;50.844;4.412;2022-11-23T16:40:12;6.70;;;2.30;;
27794;SDS011;15176;50.844;4.412;2022-11-23T16:42:38;6.25;;;2.13;;
27794;SDS011;15176;50.844;4.412;2022-11-23T16:45:05;11.52;;;2.78;;
27794;SDS011;15176;50.844;4.412;2022-11-23T16:47:32;6.57;;;2.47;;
27794;SDS011;15176;50.844;4.412;2022-11-23T16:49:58;6.70;;;2.17;;
27794;SDS011;15176;50.844;4.412;2022-11-23T16:52:24;11.82;;;5.00;;
27794;SDS011;15176;50.844;4.412;2022-11-23T16:54:50;10.68;;;5.05;;
27794;SDS011;15176;50.844;4.412;2022-11-23T16:57:21;16.48;;;4.90;;
27794;SDS011;15176;50.844;4.412;2022-11-23T16:59:49;8.15;;;3.80;;
27794;SDS011;15176;50.844;4.412;2022-11-23T17:02:15;9.88;;;2.92;;
27794;SDS011;15176;50.844;4.412;2022-11-23T17:04:41;17.40;;;9.57;;
27794;SDS011;15176;50.844;4.412;2022-11-23T17:07:08;9.48;;;3.10;;
27794;SDS011;15176;50.844;4.412;2022-11-23T17:09:34;6.57;;;2.30;;
27794;SDS011;15176;50.844;4.412;2022-11-23T17:12:00;12.25;;;3.13;;
27794;SDS011;15176;50.844;4.412;2022-11-23T17:14:34;15.48;;;3.50;;